createdAt,value
2019-04-19T00:00:42.445Z,11.60
2019-04-19T00:01:50.788Z,9.90
2019-04-19T00:02:45.024Z,9.60
2019-04-19T00:03:42.460Z,10.40
2019-04-19T00:04:48.462Z,10.10
2019-04-19T00:05:45.286Z,10.20
2019-04-19T00:06:43.362Z,12.60
2019-04-19T00:07:46.859Z,8.90
2019-04-19T00:09:00.099Z,8.50
2019-04-19T00:09:53.250Z,9.60
2019-04-19T00:10:51.160Z,10.50
2019-04-19T00:11:47.219Z,9.80
2019-04-19T00:12:48.714Z,9.10
2019-04-19T00:13:42.978Z,8.90
2019-04-19T00:14:42.473Z,8.70
2019-04-19T00:15:43.605Z,10.20
2019-04-19T00:16:42.832Z,10.80
2019-04-19T00:17:43.868Z,12.80
2019-04-19T00:18:51.240Z,10.20
2019-04-19T00:20:05.518Z,10.50
2019-04-19T00:21:03.030Z,10.40
2019-04-19T00:22:10.348Z,10.50
2019-04-19T00:22:58.201Z,10.60
2019-04-19T00:23:46.780Z,9.30
2019-04-19T00:24:43.782Z,10.20
2019-04-19T00:25:43.470Z,9.10
2019-04-19T00:26:44.382Z,10.70
2019-04-19T00:27:49.672Z,9.50
2019-04-19T00:28:50.549Z,10.40
2019-04-19T00:29:52.730Z,9.50
2019-04-19T00:30:54.683Z,12.70
2019-04-19T00:32:00.380Z,9.60
2019-04-19T00:33:00.249Z,10.60
2019-04-19T00:33:48.350Z,10.00
2019-04-19T00:34:44.419Z,10.80
2019-04-19T00:35:45.382Z,10.30
2019-04-19T00:36:44.797Z,9.60
2019-04-19T00:37:44.898Z,10.00
2019-04-19T00:38:57.429Z,11.80
2019-04-19T00:40:04.743Z,10.50
2019-04-19T00:41:05.116Z,9.40
2019-04-19T00:42:04.930Z,11.60
2019-04-19T00:42:56.941Z,9.20
2019-04-19T00:43:58.815Z,12.20
2019-04-19T00:45:04.802Z,9.00
2019-04-19T00:46:05.836Z,10.70
2019-04-19T00:47:10.434Z,10.50
2019-04-19T00:48:00.764Z,10.20
2019-04-19T00:48:59.884Z,11.70
2019-04-19T00:50:00.254Z,11.30
2019-04-19T00:50:59.791Z,11.10
2019-04-19T00:52:00.198Z,11.50
2019-04-19T00:53:05.699Z,11.00
2019-04-19T00:53:57.473Z,10.10
2019-04-19T00:54:56.721Z,11.40
2019-04-19T00:55:58.818Z,10.20
2019-04-19T00:56:54.968Z,9.40
2019-04-19T00:57:53.306Z,10.90
2019-04-19T00:58:53.288Z,13.80
2019-04-19T00:59:49.001Z,9.50
2019-04-19T01:00:46.661Z,12.40
2019-04-19T01:01:53.703Z,10.80
2019-04-19T01:02:51.794Z,10.40
2019-04-19T01:03:50.237Z,11.20
2019-04-19T01:04:49.276Z,13.00
2019-04-19T01:05:54.962Z,12.30
2019-04-19T01:06:54.769Z,10.00
2019-04-19T01:07:47.521Z,10.20
2019-04-19T01:08:55.152Z,10.70
2019-04-19T01:10:08.545Z,12.10
2019-04-19T01:11:06.189Z,10.20
2019-04-19T01:12:03.125Z,11.10
2019-04-19T01:13:03.264Z,10.50
2019-04-19T01:14:01.446Z,9.40
2019-04-19T01:15:04.558Z,10.10
2019-04-19T01:16:01.411Z,10.20
2019-04-19T01:17:01.581Z,10.90
2019-04-19T01:18:08.425Z,10.40
2019-04-19T01:18:55.847Z,11.40
2019-04-19T01:19:55.774Z,12.90
2019-04-19T01:20:48.461Z,10.90
2019-04-19T01:21:49.083Z,10.70
2019-04-19T01:22:55.771Z,10.70
2019-04-19T01:23:54.256Z,10.30
2019-04-19T01:24:50.135Z,11.40
2019-04-19T01:25:54.151Z,12.20
2019-04-19T01:26:53.951Z,11.10
2019-04-19T01:27:49.086Z,10.50
2019-04-19T01:28:53.557Z,11.80
2019-04-19T01:29:54.250Z,10.70
2019-04-19T01:30:50.723Z,12.10
2019-04-19T01:31:58.347Z,10.10
2019-04-19T01:32:54.520Z,9.60
2019-04-19T01:33:50.712Z,9.80
2019-04-19T01:34:54.405Z,11.90
2019-04-19T01:35:52.910Z,10.50
2019-04-19T01:36:51.237Z,11.70
2019-04-19T01:37:57.810Z,10.20
2019-04-19T01:39:04.432Z,12.40
2019-04-19T01:40:04.342Z,11.90
2019-04-19T01:41:07.938Z,12.60
2019-04-19T01:42:00.965Z,11.60
2019-04-19T01:43:06.056Z,10.90
2019-04-19T01:44:10.570Z,11.00
2019-04-19T01:45:04.104Z,10.00
2019-04-19T01:46:05.605Z,9.20
2019-04-19T01:47:04.885Z,13.30
2019-04-19T01:48:07.565Z,12.70
2019-04-19T01:49:05.249Z,14.50
2019-04-19T01:50:04.198Z,10.20
2019-04-19T01:51:12.263Z,12.00
2019-04-19T01:52:09.859Z,11.30
2019-04-19T01:53:14.891Z,11.00
2019-04-19T01:54:12.851Z,11.10
2019-04-19T01:55:01.854Z,10.60
2019-04-19T01:55:59.251Z,11.30
2019-04-19T01:56:57.099Z,12.30
2019-04-19T01:57:53.966Z,10.20
2019-04-19T01:58:55.794Z,11.40
2019-04-19T01:59:55.389Z,12.90
2019-04-19T02:00:55.469Z,9.80
2019-04-19T02:02:00.467Z,10.60
2019-04-19T02:02:56.415Z,9.70
2019-04-19T02:03:53.739Z,10.80
2019-04-19T02:05:01.879Z,11.70
2019-04-19T02:05:56.535Z,10.60
2019-04-19T02:06:52.989Z,10.90
2019-04-19T02:07:58.124Z,10.80
2019-04-19T02:08:56.270Z,11.00
2019-04-19T02:10:06.498Z,10.10
2019-04-19T02:11:02.757Z,12.00
2019-04-19T02:12:03.592Z,10.80
2019-04-19T02:13:06.143Z,13.30
2019-04-19T02:14:03.838Z,9.50
2019-04-19T02:14:59.211Z,11.20
2019-04-19T02:15:54.845Z,13.20
2019-04-19T02:16:59.526Z,11.50
2019-04-19T02:17:54.297Z,12.60
2019-04-19T02:19:00.635Z,10.30
2019-04-19T02:20:00.155Z,11.70
2019-04-19T02:20:54.567Z,10.50
2019-04-19T02:21:55.461Z,11.20
2019-04-19T02:23:00.191Z,10.00
2019-04-19T02:23:58.664Z,11.90
2019-04-19T02:24:57.252Z,10.00
2019-04-19T02:25:59.247Z,10.30
2019-04-19T02:27:01.053Z,10.00
2019-04-19T02:27:54.582Z,11.00
2019-04-19T02:28:57.646Z,11.40
2019-04-19T02:30:02.568Z,10.30
2019-04-19T02:31:10.507Z,9.90
2019-04-19T02:32:30.201Z,11.70
2019-04-19T02:33:20.034Z,10.70
2019-04-19T02:34:32.120Z,11.10
2019-04-19T02:35:15.628Z,10.10
2019-04-19T02:36:25.341Z,11.20
2019-04-19T02:37:18.467Z,12.70
2019-04-19T02:38:22.765Z,11.20
2019-04-19T02:40:39.608Z,11.10
2019-04-19T02:41:30.067Z,11.80
2019-04-19T02:43:27.671Z,10.60
2019-04-19T02:44:17.828Z,12.20
2019-04-19T02:45:17.603Z,11.20
2019-04-19T02:46:34.902Z,10.00
2019-04-19T02:47:34.350Z,10.60
2019-04-19T02:48:31.166Z,11.30
2019-04-19T02:49:28.278Z,12.30
2019-04-19T02:50:39.099Z,13.00
2019-04-19T02:51:25.927Z,10.40
2019-04-19T02:52:29.163Z,10.90
2019-04-19T02:53:26.324Z,12.30
2019-04-19T02:54:25.526Z,11.40
2019-04-19T02:55:35.513Z,11.20
2019-04-19T02:56:36.124Z,10.70
2019-04-19T02:58:17.009Z,11.00
2019-04-19T02:59:30.302Z,10.60
2019-04-19T03:00:32.517Z,11.00
2019-04-19T03:01:28.085Z,11.40
2019-04-19T03:02:31.458Z,9.80
2019-04-19T03:03:50.122Z,10.70
2019-04-19T03:05:18.751Z,10.70
2019-04-19T03:06:13.322Z,10.40
2019-04-19T03:07:01.099Z,12.30
2019-04-19T03:07:57.989Z,13.30
2019-04-19T03:08:58.605Z,12.20
2019-04-19T03:09:58.181Z,12.10
2019-04-19T03:11:09.284Z,10.20
2019-04-19T03:12:12.565Z,11.30
2019-04-19T03:13:12.785Z,12.40
2019-04-19T03:14:11.907Z,12.70
2019-04-19T03:15:13.841Z,11.40
2019-04-19T03:16:22.293Z,13.40
2019-04-19T03:17:17.611Z,10.90
2019-04-19T03:18:27.691Z,12.20
2019-04-19T03:19:09.650Z,10.00
2019-04-19T03:20:18.037Z,11.40
2019-04-19T03:21:18.930Z,11.20
2019-04-19T03:22:16.125Z,11.90
2019-04-19T03:23:14.904Z,10.30
2019-04-19T03:24:11.203Z,11.20
2019-04-19T03:25:15.684Z,12.40
2019-04-19T03:26:16.568Z,10.50
2019-04-19T03:27:09.993Z,12.40
2019-04-19T03:28:11.015Z,11.10
2019-04-19T03:29:08.820Z,10.20
2019-04-19T03:30:11.007Z,11.50
2019-04-19T03:31:23.176Z,10.70
2019-04-19T03:33:41.969Z,9.80
2019-04-19T03:34:31.112Z,11.40
2019-04-19T03:35:12.641Z,10.90
2019-04-19T03:36:33.724Z,13.90
2019-04-19T03:37:21.597Z,12.40
2019-04-19T03:38:15.744Z,11.20
2019-04-19T03:39:24.802Z,12.20
2019-04-19T03:41:38.867Z,10.60
2019-04-19T03:42:21.569Z,13.60
2019-04-19T03:43:25.781Z,11.90
2019-04-19T03:44:15.949Z,11.00
2019-04-19T03:45:19.190Z,11.30
2019-04-19T03:46:16.994Z,12.10
2019-04-19T03:47:23.824Z,11.40
2019-04-19T03:48:25.870Z,11.30
2019-04-19T03:49:30.277Z,11.70
2019-04-19T03:50:24.109Z,10.90
2019-04-19T03:51:20.924Z,10.00
2019-04-19T03:52:21.830Z,16.70
2019-04-19T03:53:25.884Z,11.60
2019-04-19T03:54:18.630Z,11.80
2019-04-19T03:55:19.144Z,10.90
2019-04-19T03:56:28.805Z,11.40
2019-04-19T03:57:23.069Z,12.90
2019-04-19T03:58:08.272Z,11.60
2019-04-19T03:59:02.842Z,11.70
2019-04-19T04:00:02.720Z,10.90
2019-04-19T04:01:02.532Z,12.00
2019-04-19T04:02:04.107Z,14.50
2019-04-19T04:03:10.404Z,11.20
2019-04-19T04:04:09.161Z,12.90
2019-04-19T04:05:07.509Z,12.20
2019-04-19T04:06:03.871Z,11.00
2019-04-19T04:07:09.838Z,9.90
2019-04-19T04:08:10.178Z,12.20
2019-04-19T04:09:06.239Z,10.10
2019-04-19T04:10:04.638Z,11.20
2019-04-19T04:11:09.591Z,11.60
2019-04-19T04:13:17.718Z,11.20
2019-04-19T04:14:16.982Z,13.00
2019-04-19T04:15:14.221Z,10.80
2019-04-19T04:16:17.545Z,11.50
2019-04-19T04:17:03.965Z,11.00
2019-04-19T04:18:04.790Z,10.40
2019-04-19T04:19:04.027Z,10.90
2019-04-19T04:20:05.284Z,10.40
2019-04-19T04:21:05.350Z,10.20
2019-04-19T04:22:07.658Z,10.00
2019-04-19T04:23:11.825Z,10.30
2019-04-19T04:24:14.400Z,10.80
2019-04-19T04:25:14.430Z,9.50
2019-04-19T04:26:10.142Z,12.70
2019-04-19T04:27:12.305Z,11.50
2019-04-19T04:28:20.515Z,13.00
2019-04-19T04:29:12.139Z,12.00
2019-04-19T04:30:15.310Z,10.90
2019-04-19T04:31:16.693Z,11.70
2019-04-19T04:32:12.747Z,10.20
2019-04-19T04:33:21.584Z,10.40
2019-04-19T04:34:24.121Z,10.10
2019-04-19T04:35:23.071Z,11.40
2019-04-19T04:36:28.442Z,10.70
2019-04-19T04:37:23.232Z,10.60
2019-04-19T04:38:14.566Z,13.10
2019-04-19T04:39:07.135Z,13.50
2019-04-19T04:40:06.311Z,12.00
2019-04-19T04:41:13.479Z,11.40
2019-04-19T04:42:15.686Z,11.30
2019-04-19T04:43:23.141Z,10.30
2019-04-19T04:44:22.828Z,10.60
2019-04-19T04:45:28.765Z,12.40
2019-04-19T04:46:29.137Z,9.70
2019-04-19T04:47:25.662Z,10.20
2019-04-19T04:48:29.381Z,13.30
2019-04-19T04:49:34.424Z,11.60
2019-04-19T04:50:34.514Z,11.00
2019-04-19T04:51:26.174Z,9.50
2019-04-19T04:52:16.983Z,12.20
2019-04-19T04:53:07.023Z,10.90
2019-04-19T04:54:08.126Z,11.60
2019-04-19T04:55:07.275Z,10.90
2019-04-19T04:56:09.270Z,9.90
2019-04-19T04:57:13.911Z,10.60
2019-04-19T04:58:16.254Z,10.50
2019-04-19T04:59:15.288Z,10.60
2019-04-19T05:00:08.044Z,10.90
2019-04-19T05:01:13.482Z,11.80
2019-04-19T05:02:21.178Z,10.70
2019-04-19T05:03:24.239Z,11.30
2019-04-19T05:04:26.281Z,11.70
2019-04-19T05:05:24.796Z,12.40
2019-04-19T05:06:26.031Z,10.60
2019-04-19T05:07:28.378Z,12.30
2019-04-19T05:08:24.557Z,10.80
2019-04-19T05:09:28.411Z,9.80
2019-04-19T05:10:27.032Z,12.50
2019-04-19T05:11:25.593Z,10.80
2019-04-19T05:12:36.827Z,11.00
2019-04-19T05:13:43.344Z,11.60
2019-04-19T05:14:28.649Z,10.10
2019-04-19T05:15:26.595Z,10.40
2019-04-19T05:16:32.335Z,9.60
2019-04-19T05:18:40.249Z,11.30
2019-04-19T05:19:25.058Z,10.90
2019-04-19T05:20:27.814Z,10.30
2019-04-19T05:21:31.001Z,11.50
2019-04-19T05:22:22.353Z,10.40
2019-04-19T05:23:27.209Z,11.40
2019-04-19T05:24:40.069Z,13.30
2019-04-19T05:25:35.783Z,10.10
2019-04-19T05:26:41.123Z,11.20
2019-04-19T05:27:32.837Z,11.50
2019-04-19T05:28:27.746Z,10.50
2019-04-19T05:29:19.968Z,10.20
2019-04-19T05:30:11.273Z,9.80
2019-04-19T05:31:20.839Z,9.60
2019-04-19T05:32:19.701Z,10.90
2019-04-19T05:33:21.118Z,10.40
2019-04-19T05:34:26.156Z,10.50
2019-04-19T05:35:23.988Z,10.70
2019-04-19T05:36:29.318Z,12.50
2019-04-19T05:37:23.751Z,11.10
2019-04-19T05:38:35.310Z,11.60
2019-04-19T05:39:32.472Z,11.00
2019-04-19T05:40:29.000Z,10.00
2019-04-19T05:41:27.110Z,10.30
2019-04-19T05:42:33.106Z,10.90
2019-04-19T05:43:50.080Z,12.00
2019-04-19T05:45:37.942Z,11.20
2019-04-19T05:46:37.741Z,11.10
2019-04-19T05:47:26.232Z,10.80
2019-04-19T05:48:23.701Z,10.80
2019-04-19T05:49:28.899Z,10.40
2019-04-19T05:50:30.109Z,9.70
2019-04-19T05:51:34.283Z,9.60
2019-04-19T05:52:31.659Z,10.00
2019-04-19T05:53:22.313Z,10.10
2019-04-19T05:54:15.337Z,9.80
2019-04-19T05:55:13.446Z,9.70
2019-04-19T05:56:13.663Z,10.00
2019-04-19T05:57:33.160Z,10.30
2019-04-19T05:58:21.459Z,10.30
2019-04-19T05:59:26.598Z,10.50
2019-04-19T06:00:25.934Z,10.10
2019-04-19T06:01:32.863Z,12.80
2019-04-19T06:02:25.566Z,11.40
2019-04-19T06:03:21.445Z,9.80
2019-04-19T06:04:32.436Z,10.90
2019-04-19T06:05:36.692Z,11.40
2019-04-19T06:06:37.259Z,10.10
2019-04-19T06:07:31.761Z,8.70
2019-04-19T06:08:22.107Z,11.60
2019-04-19T06:09:13.831Z,10.50
2019-04-19T06:10:14.656Z,9.30
2019-04-19T06:11:15.283Z,10.90
2019-04-19T06:12:20.931Z,10.70
2019-04-19T06:13:15.901Z,9.50
2019-04-19T06:14:43.380Z,11.00
2019-04-19T06:15:36.823Z,10.50
2019-04-19T06:16:30.629Z,10.80
2019-04-19T06:17:33.357Z,12.50
2019-04-19T06:18:28.387Z,11.20
2019-04-19T06:19:33.350Z,11.80
2019-04-19T06:20:30.294Z,12.10
2019-04-19T06:21:34.041Z,11.80
2019-04-19T06:22:37.175Z,11.80
2019-04-19T06:23:40.260Z,12.30
2019-04-19T06:24:36.566Z,12.80
2019-04-19T06:25:41.838Z,14.90
2019-04-19T06:27:46.595Z,11.10
2019-04-19T06:28:48.474Z,12.50
2019-04-19T06:29:43.657Z,13.20
2019-04-19T06:30:37.183Z,9.50
2019-04-19T06:31:48.799Z,11.20
2019-04-19T06:32:39.290Z,10.20
2019-04-19T06:33:34.355Z,9.50
2019-04-19T06:34:37.701Z,9.30
2019-04-19T06:35:26.970Z,9.70
2019-04-19T06:36:17.944Z,9.60
2019-04-19T06:37:21.521Z,9.00
2019-04-19T06:38:16.582Z,8.80
2019-04-19T06:39:16.680Z,9.50
2019-04-19T06:40:24.272Z,8.30
2019-04-19T06:41:21.753Z,9.40
2019-04-19T06:42:22.848Z,9.40
2019-04-19T06:43:30.516Z,7.90
2019-04-19T06:44:41.656Z,8.80
2019-04-19T06:45:30.236Z,7.70
2019-04-19T06:46:31.809Z,8.00
2019-04-19T06:47:26.695Z,8.00
2019-04-19T06:48:22.015Z,8.40
2019-04-19T06:49:22.897Z,7.30
2019-04-19T06:50:24.431Z,8.80
2019-04-19T06:51:28.308Z,7.60
2019-04-19T06:52:23.904Z,8.40
2019-04-19T06:53:18.855Z,8.40
2019-04-19T06:54:24.776Z,7.80
2019-04-19T06:55:24.880Z,7.50
2019-04-19T06:56:25.676Z,8.00
2019-04-19T06:57:25.603Z,9.40
2019-04-19T06:58:24.287Z,8.70
2019-04-19T06:59:35.232Z,8.30
2019-04-19T07:00:30.540Z,8.30
2019-04-19T07:01:30.151Z,9.40
2019-04-19T07:02:20.034Z,9.60
2019-04-19T07:03:19.600Z,10.90
2019-04-19T07:04:19.158Z,7.70
2019-04-19T07:05:34.997Z,9.10
2019-04-19T07:06:32.099Z,8.10
2019-04-19T07:07:37.941Z,8.40
2019-04-19T07:09:45.033Z,8.10
2019-04-19T07:10:51.587Z,8.40
2019-04-19T07:12:44.134Z,8.20
2019-04-19T07:13:32.898Z,8.90
2019-04-19T07:14:24.959Z,9.20
2019-04-19T07:15:51.048Z,8.10
2019-04-19T07:16:40.914Z,8.20
2019-04-19T07:17:34.277Z,8.60
2019-04-19T07:18:36.064Z,9.60
2019-04-19T07:19:38.930Z,7.90
2019-04-19T07:20:33.708Z,9.30
2019-04-19T07:21:37.143Z,8.10
2019-04-19T07:22:39.128Z,8.90
2019-04-19T07:23:42.026Z,7.40
2019-04-19T07:24:44.344Z,8.30
2019-04-19T07:25:46.831Z,8.10
2019-04-19T07:26:42.559Z,7.40
2019-04-19T07:27:34.488Z,8.20
2019-04-19T07:28:26.399Z,6.90
2019-04-19T07:29:21.680Z,7.10
2019-04-19T07:30:22.543Z,10.00
2019-04-19T07:31:21.892Z,7.20
2019-04-19T07:32:29.014Z,8.00
2019-04-19T07:33:31.454Z,9.30
2019-04-19T07:34:40.686Z,6.30
2019-04-19T07:35:53.099Z,7.90
2019-04-19T07:36:40.198Z,7.90
2019-04-19T07:37:41.816Z,7.80
2019-04-19T07:38:50.675Z,6.70
2019-04-19T07:39:49.467Z,7.10
2019-04-19T07:40:42.909Z,7.10
2019-04-19T07:41:37.615Z,7.80
2019-04-19T07:42:39.379Z,8.50
2019-04-19T07:43:40.635Z,7.00
2019-04-19T07:44:34.126Z,6.30
2019-04-19T07:45:30.980Z,7.10
2019-04-19T07:46:47.191Z,5.90
2019-04-19T07:47:33.945Z,6.70
2019-04-19T07:48:25.814Z,6.00
2019-04-19T07:49:23.652Z,5.60
2019-04-19T07:50:27.799Z,5.70
2019-04-19T07:51:30.106Z,6.10
2019-04-19T07:52:34.404Z,8.30
2019-04-19T07:53:32.048Z,5.50
2019-04-19T07:54:29.878Z,5.70
2019-04-19T07:55:24.397Z,5.10
2019-04-19T07:56:39.172Z,6.30
2019-04-19T08:01:10.367Z,6.90
2019-04-19T08:02:07.139Z,5.00
2019-04-19T08:04:58.743Z,5.50
2019-04-19T08:05:54.979Z,4.80
2019-04-19T08:06:53.394Z,5.80
2019-04-19T08:08:00.872Z,6.60
2019-04-19T08:09:58.572Z,5.50
2019-04-19T08:12:53.811Z,5.00
2019-04-19T08:13:58.129Z,6.20
2019-04-19T08:18:03.450Z,5.20
2019-04-19T08:27:37.116Z,4.90
2019-04-19T08:28:38.792Z,6.10
2019-04-19T08:29:38.468Z,5.40
2019-04-19T08:30:35.982Z,6.70
2019-04-19T08:31:27.792Z,5.90
2019-04-19T08:32:28.142Z,5.30
2019-04-19T08:33:27.985Z,5.50
2019-04-19T08:34:29.587Z,5.60
2019-04-19T08:35:31.853Z,5.20
2019-04-19T08:36:33.941Z,8.20
2019-04-19T08:37:35.188Z,5.30
2019-04-19T08:38:30.869Z,4.80
2019-04-19T08:39:44.929Z,5.00
2019-04-19T08:40:50.611Z,5.80
2019-04-19T08:41:46.718Z,4.90
2019-04-19T08:42:47.734Z,5.00
2019-04-19T08:43:46.927Z,6.00
2019-04-19T08:44:42.002Z,6.40
2019-04-19T08:45:30.401Z,5.00
2019-04-19T08:46:30.158Z,5.40
2019-04-19T08:47:35.701Z,5.50
2019-04-19T08:48:39.141Z,5.60
2019-04-19T08:49:35.243Z,5.30
2019-04-19T08:50:30.825Z,4.70
2019-04-19T08:51:33.368Z,5.00
2019-04-19T08:52:33.653Z,5.80
2019-04-19T08:53:43.016Z,5.60
2019-04-19T08:54:56.316Z,5.80
2019-04-19T08:55:52.925Z,4.70
2019-04-19T08:56:40.976Z,5.80
2019-04-19T08:57:32.270Z,5.00
2019-04-19T08:58:51.266Z,5.50
2019-04-19T09:00:04.776Z,5.10
2019-04-19T09:01:00.402Z,4.20
2019-04-19T09:01:50.823Z,4.90
2019-04-19T09:02:45.299Z,7.10
2019-04-19T09:03:54.053Z,5.10
2019-04-19T09:04:52.346Z,4.90
2019-04-19T09:05:54.672Z,5.40
2019-04-19T09:07:53.838Z,5.30
2019-04-19T09:08:48.955Z,6.50
2019-04-19T09:10:09.866Z,5.80
2019-04-19T09:10:52.276Z,5.30
2019-04-19T09:11:54.014Z,4.40
2019-04-19T09:12:57.739Z,5.10
2019-04-19T09:13:53.488Z,5.10
2019-04-19T09:14:52.571Z,5.90
2019-04-19T09:15:45.958Z,4.60
2019-04-19T09:17:00.017Z,6.00
2019-04-19T09:18:21.397Z,5.00
2019-04-19T09:18:55.702Z,5.20
2019-04-19T09:20:05.844Z,5.20
2019-04-19T09:20:52.223Z,6.50
2019-04-19T09:21:44.885Z,5.70
2019-04-19T09:22:46.170Z,5.60
2019-04-19T09:23:43.883Z,4.30
2019-04-19T09:24:44.967Z,7.90
2019-04-19T09:25:45.474Z,6.00
2019-04-19T09:26:51.433Z,5.60
2019-04-19T09:27:56.327Z,4.70
2019-04-19T09:28:54.141Z,5.90
2019-04-19T09:29:54.869Z,5.40
2019-04-19T09:30:53.659Z,4.90
2019-04-19T09:31:45.287Z,4.50
2019-04-19T09:32:35.975Z,4.40
2019-04-19T09:33:37.669Z,6.00
2019-04-19T09:34:35.088Z,5.40
2019-04-19T09:35:39.889Z,4.30
2019-04-19T09:36:41.536Z,4.30
2019-04-19T09:37:47.834Z,4.20
2019-04-19T09:38:50.143Z,4.10
2019-04-19T09:39:45.445Z,5.10
2019-04-19T09:40:41.387Z,3.80
2019-04-19T09:41:43.658Z,5.30
2019-04-19T09:42:46.854Z,4.80
2019-04-19T09:43:49.401Z,5.70
2019-04-19T09:44:43.084Z,5.10
2019-04-19T09:45:36.187Z,4.10
2019-04-19T09:46:36.033Z,4.70
2019-04-19T09:47:35.946Z,5.60
2019-04-19T09:48:53.006Z,3.70
2019-04-19T09:49:50.886Z,4.20
2019-04-19T09:50:54.045Z,4.60
2019-04-19T09:51:54.030Z,5.10
2019-04-19T09:53:58.968Z,3.60
2019-04-19T09:54:58.772Z,3.90
2019-04-19T09:55:56.378Z,4.00
2019-04-19T09:56:53.667Z,3.80
2019-04-19T09:57:58.517Z,4.70
2019-04-19T09:58:52.317Z,5.10
2019-04-19T09:59:40.756Z,3.80
2019-04-19T10:00:36.745Z,4.60
2019-04-19T10:01:42.634Z,4.90
2019-04-19T10:02:44.317Z,4.80
2019-04-19T10:03:43.901Z,4.60
2019-04-19T10:04:37.871Z,4.10
2019-04-19T10:05:37.031Z,4.90
2019-04-19T10:06:38.505Z,4.90
2019-04-19T10:07:37.243Z,4.10
2019-04-19T10:08:37.758Z,4.20
2019-04-19T10:09:38.423Z,4.20
2019-04-19T10:10:38.786Z,4.10
2019-04-19T10:11:38.958Z,4.00
2019-04-19T10:12:37.894Z,4.20
2019-04-19T10:13:37.863Z,4.10
2019-04-19T10:14:37.960Z,3.90
2019-04-19T10:15:38.426Z,4.30
2019-04-19T10:16:38.156Z,3.90
2019-04-19T10:17:38.353Z,5.90
2019-04-19T10:18:49.154Z,4.40
2019-04-19T10:19:38.979Z,4.30
2019-04-19T10:20:38.636Z,5.00
2019-04-19T10:21:40.115Z,3.90
2019-04-19T10:22:39.098Z,4.20
2019-04-19T10:23:38.850Z,5.00
2019-04-19T10:24:39.110Z,5.20
2019-04-19T10:25:46.265Z,4.20
2019-04-19T10:26:40.350Z,5.60
2019-04-19T10:27:39.647Z,5.00
2019-04-19T10:28:40.046Z,5.40
2019-04-19T10:29:43.520Z,4.50
2019-04-19T10:30:40.662Z,4.30
2019-04-19T10:31:39.777Z,5.80
2019-04-19T10:32:40.335Z,5.40
2019-04-19T10:33:48.157Z,4.20
2019-04-19T10:34:40.704Z,4.50
2019-04-19T10:35:41.214Z,4.70
2019-04-19T10:36:40.603Z,5.90
2019-04-19T10:37:40.277Z,4.00
2019-04-19T10:38:41.023Z,4.70
2019-04-19T10:39:41.649Z,4.80
2019-04-19T10:40:41.722Z,5.30
2019-04-19T10:41:40.665Z,6.00
2019-04-19T10:42:41.187Z,4.40
2019-04-19T10:43:41.273Z,6.00
2019-04-19T10:44:42.208Z,4.40
2019-04-19T10:45:41.766Z,5.70
2019-04-19T10:46:41.163Z,5.40
2019-04-19T10:47:41.999Z,4.80
2019-04-19T10:48:41.385Z,5.20
2019-04-19T10:49:49.487Z,4.00
2019-04-19T10:50:45.852Z,6.60
2019-04-19T10:51:41.926Z,4.60
2019-04-19T10:52:41.768Z,4.80
2019-04-19T10:53:42.125Z,5.50
2019-04-19T10:54:43.209Z,5.50
2019-04-19T10:55:42.353Z,4.70
2019-04-19T10:56:42.157Z,6.40
2019-04-19T10:57:43.195Z,4.90
2019-04-19T10:58:42.834Z,5.10
2019-04-19T10:59:42.698Z,5.20
2019-04-19T11:00:43.087Z,5.40
2019-04-19T11:01:43.243Z,5.80
2019-04-19T11:02:44.131Z,4.10
2019-04-19T11:03:42.896Z,4.10
2019-04-19T11:04:42.996Z,5.40
2019-04-19T11:05:43.096Z,5.50
2019-04-19T11:06:43.196Z,4.70
2019-04-19T11:07:43.650Z,6.00
2019-04-19T11:08:44.508Z,5.40
2019-04-19T11:09:43.769Z,4.50
2019-04-19T11:10:43.581Z,4.50
2019-04-19T11:11:43.682Z,5.00
2019-04-19T11:12:44.863Z,4.40
2019-04-19T11:13:43.880Z,5.30
2019-04-19T11:14:44.151Z,5.00
2019-04-19T11:15:44.590Z,4.50
2019-04-19T11:16:44.171Z,5.00
2019-04-19T11:17:45.431Z,4.70
2019-04-19T11:18:45.671Z,4.50
2019-04-19T11:19:58.833Z,4.80
2019-04-19T11:20:48.709Z,5.90
2019-04-19T11:21:45.573Z,5.40
2019-04-19T11:22:46.002Z,5.40
2019-04-19T11:23:44.876Z,6.60
2019-04-19T11:24:45.756Z,5.60
2019-04-19T11:25:47.415Z,5.50
2019-04-19T11:26:45.363Z,5.40
2019-04-19T11:27:48.419Z,5.90
2019-04-19T11:28:45.390Z,5.50
2019-04-19T11:29:46.761Z,6.00
2019-04-19T11:30:46.753Z,5.20
2019-04-19T11:31:45.757Z,6.20
2019-04-19T11:32:46.148Z,7.30
2019-04-19T11:33:46.854Z,7.00
2019-04-19T11:34:47.124Z,6.10
2019-04-19T11:35:46.156Z,6.60
2019-04-19T11:36:47.462Z,6.80
2019-04-19T11:37:47.385Z,7.40
2019-04-19T11:38:47.511Z,5.80
2019-04-19T11:39:46.596Z,6.40
2019-04-19T11:40:46.963Z,6.80
2019-04-19T11:41:47.507Z,6.60
2019-04-19T11:42:46.818Z,6.40
2019-04-19T11:43:47.592Z,6.00
2019-04-19T11:44:47.723Z,5.70
2019-04-19T11:45:48.098Z,6.50
2019-04-19T11:46:47.796Z,5.80
2019-04-19T11:47:47.462Z,5.90
2019-04-19T11:48:47.828Z,5.90
2019-04-19T11:49:49.241Z,6.50
2019-04-19T11:50:48.070Z,6.10
2019-04-19T11:51:48.439Z,7.30
2019-04-19T11:52:48.210Z,6.80
2019-04-19T11:53:48.641Z,5.90
2019-04-19T11:54:48.359Z,6.90
2019-04-19T11:55:48.691Z,6.40
2019-04-19T11:56:54.081Z,7.50
2019-04-19T11:57:48.805Z,8.50
2019-04-19T11:58:48.628Z,6.90
2019-04-19T11:59:51.893Z,8.40
2019-04-19T12:00:50.256Z,5.60
2019-04-19T12:01:50.000Z,6.10
2019-04-19T12:02:49.747Z,6.50
2019-04-19T12:03:50.019Z,6.10
2019-04-19T12:04:50.255Z,7.40
2019-04-19T12:05:50.308Z,6.80
2019-04-19T12:06:50.232Z,6.90
2019-04-19T12:07:50.458Z,6.40
2019-04-19T12:08:50.101Z,6.30
2019-04-19T12:09:50.306Z,6.40
2019-04-19T12:10:50.484Z,6.90
2019-04-19T12:11:50.574Z,5.60
2019-04-19T12:12:50.921Z,7.60
2019-04-19T12:13:50.089Z,6.50
2019-04-19T12:14:50.173Z,6.20
2019-04-19T12:15:50.749Z,7.50
2019-04-19T12:16:50.921Z,6.80
2019-04-19T12:17:50.769Z,6.60
2019-04-19T12:18:51.765Z,6.70
2019-04-19T12:19:57.228Z,6.80
2019-04-19T12:20:51.183Z,6.10
2019-04-19T12:21:52.756Z,6.40
2019-04-19T12:22:51.570Z,5.90
2019-04-19T12:23:50.986Z,7.20
2019-04-19T12:24:54.854Z,7.10
2019-04-19T12:25:51.420Z,6.30
2019-04-19T12:26:51.547Z,6.80
2019-04-19T12:27:51.863Z,8.80
2019-04-19T12:28:51.502Z,6.90
2019-04-19T12:29:54.947Z,6.10
2019-04-19T12:30:55.079Z,6.30
2019-04-19T12:31:54.303Z,6.40
2019-04-19T12:32:53.040Z,5.70
2019-04-19T12:33:53.310Z,6.60
2019-04-19T12:34:52.947Z,6.20
2019-04-19T12:35:53.035Z,6.80
2019-04-19T12:36:53.100Z,7.30
2019-04-19T12:37:53.614Z,6.50
2019-04-19T12:38:53.654Z,6.40
2019-04-19T12:39:52.870Z,7.60
2019-04-19T12:40:54.038Z,5.70
2019-04-19T12:41:52.830Z,7.20
2019-04-19T12:42:53.921Z,5.70
2019-04-19T12:43:54.064Z,8.70
2019-04-19T12:44:54.205Z,7.60
2019-04-19T12:45:54.191Z,5.40
2019-04-19T12:46:53.333Z,6.60
2019-04-19T12:47:53.434Z,7.40
2019-04-19T12:48:54.194Z,5.70
2019-04-19T12:49:59.567Z,5.10
2019-04-19T12:50:53.731Z,5.80
2019-04-19T12:51:54.414Z,5.30
2019-04-19T12:52:53.989Z,5.70
2019-04-19T12:53:54.175Z,6.50
2019-04-19T12:54:54.327Z,5.90
2019-04-19T12:55:54.250Z,5.70
2019-04-19T12:56:54.347Z,6.10
2019-04-19T12:57:54.451Z,6.00
2019-04-19T12:58:55.781Z,5.60
2019-04-19T12:59:55.900Z,6.80
2019-04-19T13:00:56.234Z,6.60
2019-04-19T13:01:55.677Z,6.90
2019-04-19T13:02:55.943Z,7.50
2019-04-19T13:03:55.144Z,6.20
2019-04-19T13:04:56.070Z,7.50
2019-04-19T13:05:55.385Z,6.90
2019-04-19T13:06:56.551Z,6.40
2019-04-19T13:07:56.548Z,6.60
2019-04-19T13:08:55.880Z,6.70
2019-04-19T13:09:55.679Z,7.50
2019-04-19T13:10:56.883Z,6.40
2019-04-19T13:11:56.841Z,6.40
2019-04-19T13:12:56.002Z,6.80
2019-04-19T13:13:57.499Z,7.10
2019-04-19T13:14:56.190Z,7.00
2019-04-19T13:15:56.528Z,6.10
2019-04-19T13:16:56.394Z,6.70
2019-04-19T13:17:56.494Z,6.00
2019-04-19T13:18:56.590Z,6.30
2019-04-19T13:20:07.561Z,6.80
2019-04-19T13:20:57.761Z,5.40
2019-04-19T13:21:56.905Z,7.00
2019-04-19T13:22:57.005Z,5.60
2019-04-19T13:23:58.270Z,6.30
2019-04-19T13:24:57.257Z,6.80
2019-04-19T13:25:57.567Z,8.80
2019-04-19T13:26:57.565Z,8.40
2019-04-19T13:27:59.638Z,8.40
2019-04-19T13:28:57.774Z,6.70
2019-04-19T13:30:08.676Z,8.30
2019-04-19T13:30:59.300Z,7.00
2019-04-19T13:31:58.753Z,5.70
2019-04-19T13:32:58.543Z,9.00
2019-04-19T13:33:58.143Z,6.90
2019-04-19T13:34:59.086Z,8.20
2019-04-19T13:35:59.327Z,7.60
2019-04-19T13:36:58.444Z,6.30
2019-04-19T13:37:59.061Z,7.30
2019-04-19T13:38:59.292Z,5.70
2019-04-19T13:39:58.745Z,5.90
2019-04-19T13:40:58.845Z,6.40
2019-04-19T13:41:59.025Z,6.80
2019-04-19T13:43:01.475Z,7.30